createdAt,value
2023-01-07T00:02:45.535Z,10.68
2023-01-07T00:08:07.246Z,10.66
2023-01-07T00:13:28.969Z,10.68
2023-01-07T00:18:53.155Z,10.69
2023-01-07T00:24:16.291Z,10.66
2023-01-07T00:29:39.867Z,10.71
2023-01-07T00:35:01.573Z,10.73
2023-01-07T00:40:23.877Z,10.70
2023-01-07T00:45:45.696Z,10.65
2023-01-07T00:51:10.657Z,10.64
2023-01-07T00:56:33.541Z,10.60
2023-01-07T01:01:55.374Z,10.66
2023-01-07T01:07:17.230Z,10.63
2023-01-07T01:12:39.659Z,10.61
2023-01-07T01:18:01.398Z,10.62
2023-01-07T01:23:23.114Z,10.65
2023-01-07T01:28:45.522Z,10.63
2023-01-07T01:34:07.217Z,10.59
2023-01-07T01:39:28.937Z,10.60
2023-01-07T01:44:53.256Z,10.58
2023-01-07T01:50:21.864Z,10.58
2023-01-07T01:55:48.773Z,10.57
2023-01-07T02:01:12.423Z,10.54
2023-01-07T02:06:37.448Z,10.54
2023-01-07T02:12:08.627Z,10.53
2023-01-07T02:17:44.283Z,10.56
2023-01-07T02:23:43.777Z,10.61
2023-01-07T02:29:42.832Z,10.54
2023-01-07T02:35:42.075Z,10.54
2023-01-07T02:41:24.524Z,10.49
2023-01-07T02:46:52.812Z,10.53
2023-01-07T02:52:23.802Z,10.48
2023-01-07T02:57:59.114Z,10.50
2023-01-07T03:03:29.878Z,10.49
2023-01-07T03:09:03.706Z,10.46
2023-01-07T03:15:12.819Z,10.48
2023-01-07T03:20:37.303Z,10.48
2023-01-07T03:26:03.093Z,10.52
2023-01-07T03:31:26.167Z,10.53
2023-01-07T03:36:55.951Z,10.53
2023-01-07T03:42:40.909Z,10.43
2023-01-07T03:48:02.695Z,10.47
2023-01-07T03:53:24.468Z,10.49
2023-01-07T03:58:46.270Z,10.53
2023-01-07T04:04:08.370Z,10.39
2023-01-07T04:09:30.113Z,10.42
2023-01-07T04:14:52.020Z,10.36
2023-01-07T04:20:13.742Z,10.37
2023-01-07T04:25:35.495Z,10.37
2023-01-07T04:30:59.302Z,10.39
2023-01-07T04:36:21.207Z,10.30
2023-01-07T04:41:42.946Z,10.31
2023-01-07T04:47:04.725Z,10.30
2023-01-07T04:52:26.470Z,10.34
2023-01-07T04:57:48.191Z,10.38
2023-01-07T05:03:09.924Z,10.26
2023-01-07T05:08:31.720Z,10.24
2023-01-07T05:13:53.580Z,10.22
2023-01-07T05:19:15.345Z,10.24
2023-01-07T05:24:37.041Z,10.25
2023-01-07T05:29:58.762Z,10.31
2023-01-07T05:35:20.512Z,10.31
2023-01-07T05:40:42.874Z,10.29
2023-01-07T05:46:05.137Z,10.22
2023-01-07T05:51:26.874Z,10.22
2023-01-07T05:56:48.589Z,10.26
2023-01-07T06:02:10.291Z,10.18
2023-01-07T06:07:32.039Z,10.16
2023-01-07T06:12:53.807Z,10.19
2023-01-07T06:18:15.533Z,10.20
2023-01-07T06:23:37.338Z,10.18
2023-01-07T06:28:59.065Z,10.15
2023-01-07T06:34:20.794Z,10.10
2023-01-07T06:39:42.512Z,10.09
2023-01-07T06:45:04.429Z,10.12
2023-01-07T06:50:26.313Z,10.14
2023-01-07T06:55:49.687Z,10.12
2023-01-07T07:01:11.811Z,10.08
2023-01-07T07:06:33.576Z,10.07
2023-01-07T07:11:55.447Z,10.03
2023-01-07T07:17:17.160Z,10.06
2023-01-07T07:22:44.603Z,10.13
2023-01-07T07:28:06.379Z,10.02
2023-01-07T07:33:28.299Z,10.03
2023-01-07T07:38:50.105Z,10.08
2023-01-07T07:44:11.798Z,9.97
2023-01-07T07:49:33.580Z,9.99
2023-01-07T07:54:55.403Z,9.97
2023-01-07T08:00:37.130Z,9.88
2023-01-07T08:05:59.607Z,9.96
2023-01-07T08:11:21.453Z,9.90
2023-01-07T08:16:43.146Z,9.89
2023-01-07T08:22:04.843Z,9.89
2023-01-07T08:27:29.998Z,9.98
2023-01-07T08:32:52.142Z,9.98
2023-01-07T08:38:13.912Z,10.00
2023-01-07T08:43:36.078Z,10.02
2023-01-07T08:48:57.808Z,10.05
2023-01-07T08:54:19.499Z,10.06
2023-01-07T08:59:41.283Z,10.11
2023-01-07T09:05:03.239Z,10.15
2023-01-07T09:10:25.099Z,10.14
2023-01-07T09:15:46.832Z,10.29
2023-01-07T09:21:08.530Z,10.27
2023-01-07T09:26:30.240Z,10.28
2023-01-07T09:31:52.028Z,10.38
2023-01-07T09:37:13.801Z,10.34
2023-01-07T09:42:53.941Z,10.61
2023-01-07T09:48:23.392Z,10.62
2023-01-07T09:53:54.224Z,10.58
2023-01-07T09:59:19.009Z,10.53
2023-01-07T10:04:50.939Z,10.55
2023-01-07T10:10:20.129Z,10.57
2023-01-07T10:16:38.777Z,10.63
2023-01-07T10:22:07.223Z,10.60
2023-01-07T10:27:32.915Z,10.47
2023-01-07T10:33:04.421Z,10.44
2023-01-07T10:38:30.413Z,10.50
2023-01-07T10:44:36.320Z,10.59
2023-01-07T10:50:27.972Z,10.60
2023-01-07T10:56:21.706Z,10.55
2023-01-07T11:01:48.804Z,10.58
2023-01-07T11:07:40.330Z,10.54
2023-01-07T11:13:15.436Z,10.54
2023-01-07T11:19:03.658Z,10.52
2023-01-07T11:24:35.741Z,10.52
2023-01-07T11:30:00.267Z,10.53
2023-01-07T11:35:23.268Z,10.47
2023-01-07T11:40:55.757Z,10.57
2023-01-07T11:46:22.414Z,10.68
2023-01-07T11:51:45.319Z,10.71
2023-01-07T11:57:20.756Z,10.78
2023-01-07T12:02:42.613Z,10.83
2023-01-07T12:08:05.937Z,10.88
2023-01-07T12:13:28.249Z,10.96
2023-01-07T12:19:20.927Z,10.96
2023-01-07T12:24:54.605Z,10.90
2023-01-07T12:30:44.217Z,11.06
2023-01-07T12:36:20.029Z,11.07
2023-01-07T12:41:47.895Z,11.05
2023-01-07T12:47:30.810Z,11.17
2023-01-07T12:53:35.650Z,11.17
2023-01-07T12:59:46.664Z,11.22
2023-01-07T13:05:15.848Z,11.20
2023-01-07T13:10:51.714Z,11.24
2023-01-07T13:16:13.570Z,11.22
2023-01-07T13:21:36.307Z,11.22
2023-01-07T13:27:26.265Z,11.26
2023-01-07T13:33:10.449Z,11.28
2023-01-07T13:39:02.589Z,11.34
2023-01-07T13:44:52.111Z,11.30
2023-01-07T13:50:35.711Z,11.27
2023-01-07T13:56:23.668Z,11.27
2023-01-07T14:02:14.887Z,11.25
2023-01-07T14:07:52.179Z,11.26
2023-01-07T14:13:22.951Z,11.25
2023-01-07T14:19:15.813Z,11.28
2023-01-07T14:25:03.408Z,11.26
2023-01-07T14:30:45.775Z,11.30
2023-01-07T14:36:09.717Z,11.30
2023-01-07T14:41:31.399Z,11.23
2023-01-07T14:46:54.106Z,11.12
2023-01-07T14:52:31.083Z,11.10
2023-01-07T14:58:22.132Z,11.10
2023-01-07T15:04:08.335Z,11.05
2023-01-07T15:10:02.478Z,10.99
2023-01-07T15:15:49.005Z,10.92
2023-01-07T15:21:36.091Z,10.87
2023-01-07T15:27:47.968Z,10.75
2023-01-07T15:34:11.394Z,10.72
2023-01-07T15:39:40.853Z,10.57
2023-01-07T15:45:02.621Z,10.50
2023-01-07T15:50:34.785Z,10.47
2023-01-07T15:56:03.976Z,10.41
2023-01-07T16:01:27.101Z,10.32
2023-01-07T16:06:49.039Z,10.31
2023-01-07T16:12:31.334Z,10.25
2023-01-07T16:18:01.641Z,10.16
2023-01-07T16:23:28.991Z,10.08
2023-01-07T16:28:55.314Z,10.05
2023-01-07T16:34:36.955Z,9.95
2023-01-07T16:39:59.213Z,9.91
2023-01-07T16:45:30.547Z,9.82
2023-01-07T16:50:55.500Z,9.90
2023-01-07T16:56:18.413Z,9.79
2023-01-07T17:01:40.554Z,9.77
2023-01-07T17:07:02.815Z,9.90
2023-01-07T17:12:28.261Z,10.04
2023-01-07T17:17:50.077Z,9.94
2023-01-07T17:23:41.145Z,9.89
2023-01-07T17:29:11.382Z,9.78
2023-01-07T17:34:33.160Z,9.73
2023-01-07T17:39:54.891Z,9.74
2023-01-07T17:45:19.277Z,9.59
2023-01-07T17:50:41.882Z,9.53
2023-01-07T17:56:03.867Z,9.45
2023-01-07T18:01:26.392Z,9.33
2023-01-07T18:06:48.171Z,9.18
2023-01-07T18:12:33.192Z,9.14
2023-01-07T18:17:54.949Z,9.10
2023-01-07T18:23:17.194Z,9.11
2023-01-07T18:28:39.341Z,9.03
2023-01-07T18:34:01.093Z,9.04
2023-01-07T18:39:22.897Z,9.07
2023-01-07T18:44:44.611Z,8.92
2023-01-07T18:50:06.610Z,8.84
2023-01-07T18:55:29.455Z,8.68
2023-01-07T19:00:51.373Z,8.68
2023-01-07T19:06:14.206Z,8.68
2023-01-07T19:11:38.226Z,8.73
2023-01-07T19:17:00.675Z,8.60
2023-01-07T19:22:22.417Z,8.66
2023-01-07T19:27:44.259Z,8.67
2023-01-07T19:33:06.018Z,8.57
2023-01-07T19:38:27.881Z,8.66
2023-01-07T19:43:53.259Z,8.60
2023-01-07T19:49:14.984Z,8.57
2023-01-07T19:54:36.765Z,8.67
2023-01-07T19:59:59.167Z,8.71
2023-01-07T20:05:21.067Z,8.67
2023-01-07T20:10:42.972Z,8.59
2023-01-07T20:16:10.849Z,8.55
2023-01-07T20:21:33.452Z,8.52
2023-01-07T20:26:55.186Z,8.53
2023-01-07T20:32:19.022Z,8.50
2023-01-07T20:37:41.607Z,8.61
2023-01-07T20:43:03.394Z,8.85
2023-01-07T20:48:25.367Z,8.99
2023-01-07T20:53:47.645Z,9.09
2023-01-07T20:59:10.886Z,8.98
2023-01-07T21:04:35.796Z,8.88
2023-01-07T21:09:57.551Z,8.91
2023-01-07T21:15:20.066Z,8.94
2023-01-07T21:20:43.001Z,8.90
2023-01-07T21:26:06.846Z,8.83
2023-01-07T21:31:28.732Z,8.87
2023-01-07T21:36:50.658Z,8.82
2023-01-07T21:42:12.384Z,8.79
2023-01-07T21:47:34.125Z,8.78
2023-01-07T21:52:55.902Z,8.82
2023-01-07T21:58:17.623Z,8.81
2023-01-07T22:03:39.946Z,8.79
2023-01-07T22:09:05.020Z,8.77
2023-01-07T22:14:26.736Z,8.82
2023-01-07T22:19:48.542Z,8.75
2023-01-07T22:25:10.338Z,8.79
2023-01-07T22:30:34.230Z,8.84
2023-01-07T22:35:56.463Z,8.83
2023-01-07T22:41:18.412Z,8.81
2023-01-07T22:46:43.090Z,8.72
2023-01-07T22:52:05.506Z,8.64
2023-01-07T22:57:28.952Z,8.70
2023-01-07T23:02:50.660Z,8.72
2023-01-07T23:08:12.716Z,8.64
2023-01-07T23:13:35.084Z,8.70
2023-01-07T23:18:56.851Z,8.44
2023-01-07T23:24:19.322Z,8.30
2023-01-07T23:29:41.182Z,8.32
2023-01-07T23:35:03.214Z,8.10
2023-01-07T23:40:24.932Z,8.04
2023-01-07T23:45:46.685Z,7.90
2023-01-07T23:51:10.063Z,7.96
2023-01-07T23:56:31.786Z,7.99
